Colonial Heights, VA

1:41 AM EDT on March 31, 2015 (GMT -0400)
Skywarn Spotter CFD0022 | | Change Station
CLOSE
Current Station
Personal Weather Station
Location: Colonial Heights, VA
Elevation: 60 ft
Nearby Weather Stations
Active Advisory: Special Statement

Elev 60 ft 37.29 °N, 77.40 °W | Updated 3 seconds ago

Partly Cloudy
Partly Cloudy
41.9 °F
Feels Like 42 °F
N
0.0
Wind Variable Wind from SW
Gusts 0.7 mph

Today
High -- | Low -- °F
--% Chance of Precip.
Yesterday
High -- | Low -- °F
Precip. -- in
6:57 AM 7:31 PM
Waxing Gibbous, 84% visible
Pressure 30.00 in
Visibility 10.0 miles
Clouds Clear
Windchill 42 °F
Dew Point 18 °F
Humidity 38%
Rainfall 0.00 in
Snow Depth Not available.
UV 0 out of 12
Pollen 7.90 out of 12
Air Quality Not available.
Flu Activity Not available.
METAR KPTB 310535Z AUTO 00000KT 10SM CLR 03/00 A3000 RMK AO2 T00280000

More Conditions Fewer Conditions

Pressure 30.00 in
Visibility 10.0 miles
Clouds Clear
Windchill 42 °F
Dew Point 18 °F
Humidity 38%
Rainfall 0.00 in
Snow Depth Not available.
UV 0 out of 12
Pollen 7.90 out of 12
Air Quality Not available.
Flu Activity Not available.
METAR KPTB 310535Z AUTO 00000KT 10SM CLR 03/00 A3000 RMK AO2 T00280000

More Conditions Fewer Conditions

10-Day Weather Forecast

Almanac

Astronomy

Mar. 31, 2015 Rise Set
Actual Time
Civil Twilight
Nautical Twilight
Astronomical Twilight
Moon
Length of Visible Light
Length of Day
Tomorrow will be .
, % of the Moon is Illuminated

Today's Extremes

State Highs State Lows

Community

WunderPhotos

Upload Photos

1,809,724 photos uploaded!

WunderBlogs® & News

Nearby

Air Quality

  Air Quality AQ Index Pollutant
Not available.

Snow Depth

Station Depth Elevation

Earthquake Activity

City Distance Mag. Time & Date
Minimum magnitude displayed is 2.5.

Coastal Water Temperatures

Place Temperature

Stations

Nearby Weather Stations

Station Location Temp. Windchill Dew Point Humidity Wind Precip. Elev Updated Type
                   
Special Statement
Statement as of 4:37 PM EDT on March 30, 2015

... Increased fire danger Tuesday afternoon...

The combination of low relative humidities and gusty southwest
winds will produce an increased fire danger threat Tuesday
afternoon. Winds are expected to gust up to 30 mph with humidity
levels dropping to between 20 to 30 percent.

Residents are urged to exercise caution handling any potential
ignition source... including machinery... cigarettes... and matches.
Be sure to properly discard all smoking materials. Any dry grasses
and tree litter that ignite will have the potential to spread
quickly.

Virgina residents are reminded that open burning is prohibited before
4 PM each day through April 30th.


44